createdAt,value
2023-04-02T00:02:26.359Z,92755.06
2023-04-02T00:05:30.496Z,92756.47
2023-04-02T00:07:58.982Z,92764.44
2023-04-02T00:10:32.887Z,92772.75
2023-04-02T00:13:01.966Z,92764.72
2023-04-02T00:15:29.043Z,92767.00
2023-04-02T00:17:56.482Z,92771.50
2023-04-02T00:20:24.505Z,92765.13
2023-04-02T00:22:51.597Z,92762.91
2023-04-02T00:25:19.386Z,92747.06
2023-04-02T00:27:48.129Z,92741.59
2023-04-02T00:30:15.723Z,92734.41
2023-04-02T00:32:44.031Z,92733.16
2023-04-02T00:35:12.604Z,92731.47
2023-04-02T00:37:42.097Z,92724.16
2023-04-02T00:40:17.371Z,92729.88
2023-04-02T00:42:44.906Z,92732.63
2023-04-02T00:45:19.782Z,92734.69
2023-04-02T00:47:46.744Z,92733.88
2023-04-02T00:50:22.304Z,92727.31
2023-04-02T00:52:51.125Z,92734.41
2023-04-02T00:55:22.918Z,92733.31
2023-04-02T00:57:50.415Z,92725.47
2023-04-02T01:00:23.109Z,92724.34
2023-04-02T01:03:29.331Z,92728.03
2023-04-02T01:06:01.711Z,92724.81
2023-04-02T01:08:38.140Z,92731.38
2023-04-02T01:11:14.953Z,92734.59
2023-04-02T01:13:45.818Z,92736.97
2023-04-02T01:16:20.040Z,92732.81
2023-04-02T01:18:53.321Z,92722.47
2023-04-02T01:21:42.606Z,92731.31
2023-04-02T01:24:11.561Z,92734.56
2023-04-02T01:26:56.427Z,92746.50
2023-04-02T01:29:26.309Z,92735.47
2023-04-02T01:31:55.641Z,92743.63
2023-04-02T01:34:25.992Z,92757.03
2023-04-02T01:37:07.144Z,92749.19
2023-04-02T01:39:43.846Z,92744.22
2023-04-02T01:42:16.100Z,92746.97
2023-04-02T01:44:47.630Z,92749.19
2023-04-02T01:47:17.173Z,92745.78
2023-04-02T01:49:44.913Z,92747.88
2023-04-02T01:52:14.796Z,92743.38
2023-04-02T01:54:42.383Z,92744.97
2023-04-02T01:57:09.654Z,92738.25
2023-04-02T01:59:36.767Z,92737.28
2023-04-02T02:02:09.736Z,92736.94
2023-04-02T02:04:39.791Z,92735.84
2023-04-02T02:07:14.483Z,92734.25
2023-04-02T02:09:43.906Z,92744.69
2023-04-02T02:12:13.803Z,92746.47
2023-04-02T02:14:46.265Z,92747.69
2023-04-02T02:17:16.011Z,92745.41
2023-04-02T02:19:45.008Z,92747.97
2023-04-02T02:22:17.493Z,92747.03
2023-04-02T02:24:44.614Z,92748.16
2023-04-02T02:27:41.814Z,92750.09
2023-04-02T02:30:14.643Z,92752.03
2023-04-02T02:32:48.303Z,92750.34
2023-04-02T02:35:19.553Z,92751.13
2023-04-02T02:37:52.420Z,92751.75
2023-04-02T02:40:24.576Z,92743.63
2023-04-02T02:42:53.480Z,92739.09
2023-04-02T02:45:24.969Z,92746.97
2023-04-02T02:47:54.756Z,92750.16
2023-04-02T02:50:23.726Z,92745.66
2023-04-02T02:52:54.452Z,92741.50
2023-04-02T02:55:23.258Z,92738.50
2023-04-02T02:58:00.182Z,92731.78
2023-04-02T03:00:32.058Z,92747.78
2023-04-02T03:03:05.020Z,92747.41
2023-04-02T03:05:32.636Z,92750.09
2023-04-02T03:08:09.553Z,92746.09
2023-04-02T03:10:41.366Z,92747.19
2023-04-02T03:13:19.908Z,92747.53
2023-04-02T03:15:51.980Z,92750.44
2023-04-02T03:18:27.222Z,92751.06
2023-04-02T03:20:57.441Z,92752.97
2023-04-02T03:23:28.701Z,92752.81
2023-04-02T03:25:59.973Z,92755.38
2023-04-02T03:28:30.139Z,92756.25
2023-04-02T03:31:00.564Z,92760.38
2023-04-02T03:33:32.903Z,92765.63
2023-04-02T03:36:03.685Z,92769.78
2023-04-02T03:38:33.094Z,92756.94
2023-04-02T03:41:04.584Z,92764.56
2023-04-02T03:43:36.990Z,92759.44
2023-04-02T03:46:15.037Z,92766.97
2023-04-02T03:48:46.113Z,92766.97
2023-04-02T03:51:18.675Z,92764.06
2023-04-02T03:53:46.748Z,92771.28
2023-04-02T03:56:22.936Z,92760.22
2023-04-02T03:58:55.214Z,92771.56
2023-04-02T04:01:27.456Z,92766.66
2023-04-02T04:04:01.564Z,92766.22
2023-04-02T04:06:31.205Z,92760.94
2023-04-02T04:09:01.381Z,92767.63
2023-04-02T04:11:31.915Z,92763.97
2023-04-02T04:14:01.888Z,92763.03
2023-04-02T04:16:32.827Z,92765.72
2023-04-02T04:19:04.105Z,92767.91
2023-04-02T04:21:39.761Z,92774.19
2023-04-02T04:24:20.433Z,92774.47
2023-04-02T04:26:53.510Z,92779.25
2023-04-02T04:29:32.578Z,92781.38
2023-04-02T04:32:13.163Z,92790.94
2023-04-02T04:34:47.052Z,92798.25
2023-04-02T04:37:25.218Z,92798.94
2023-04-02T04:39:57.329Z,92809.59
2023-04-02T04:42:26.666Z,92804.94
2023-04-02T04:44:59.938Z,92808.50
2023-04-02T04:47:31.148Z,92814.19
2023-04-02T04:50:04.585Z,92810.19
2023-04-02T04:52:37.633Z,92811.94
2023-04-02T04:55:40.449Z,92810.22
2023-04-02T04:58:15.911Z,92817.22
2023-04-02T05:00:51.570Z,92807.03
2023-04-02T05:03:28.438Z,92810.41
2023-04-02T05:06:01.068Z,92807.69
2023-04-02T05:08:33.819Z,92816.34
2023-04-02T05:11:02.334Z,92819.03
2023-04-02T05:13:33.048Z,92813.47
2023-04-02T05:16:07.896Z,92805.63
2023-04-02T05:18:39.243Z,92821.25
2023-04-02T05:21:18.395Z,92823.19
2023-04-02T05:23:48.359Z,92826.56
2023-04-02T05:26:18.264Z,92817.28
2023-04-02T05:28:48.991Z,92818.72
2023-04-02T05:31:20.085Z,92830.34
2023-04-02T05:33:49.363Z,92818.72
2023-04-02T05:36:21.749Z,92829.25
2023-04-02T05:38:52.744Z,92844.72
2023-04-02T05:41:27.701Z,92844.72
2023-04-02T05:44:02.588Z,92842.16
2023-04-02T05:46:34.032Z,92833.03
2023-04-02T05:49:04.795Z,92839.56
2023-04-02T05:51:39.785Z,92842.25
2023-04-02T05:54:16.837Z,92836.78
2023-04-02T05:56:46.628Z,92837.91
2023-04-02T05:59:17.265Z,92847.91
2023-04-02T06:01:47.428Z,92844.47
2023-04-02T06:04:23.022Z,92852.09
2023-04-02T06:06:57.492Z,92843.09
2023-04-02T06:09:31.237Z,92850.09
2023-04-02T06:12:04.988Z,92854.56
2023-04-02T06:14:33.061Z,92857.00
2023-04-02T06:17:00.534Z,92852.81
2023-04-02T06:19:32.295Z,92848.19
2023-04-02T06:22:09.604Z,92841.34
2023-04-02T06:24:37.739Z,92847.38
2023-04-02T06:27:06.576Z,92861.03
2023-04-02T06:29:39.735Z,92851.50
2023-04-02T06:32:11.557Z,92845.69
2023-04-02T06:34:42.553Z,92841.69
2023-04-02T06:37:20.289Z,92849.94
2023-04-02T06:39:48.677Z,92849.94
2023-04-02T06:42:20.547Z,92851.88
2023-04-02T06:45:00.107Z,92852.34
2023-04-02T06:47:50.589Z,92857.09
2023-04-02T06:50:46.251Z,92856.72
2023-04-02T06:53:20.854Z,92861.69
2023-04-02T06:55:51.173Z,92856.31
2023-04-02T06:58:23.038Z,92858.78
2023-04-02T07:00:51.816Z,92870.19
2023-04-02T07:03:31.039Z,92865.59
2023-04-02T07:06:03.433Z,92869.63
2023-04-02T07:08:33.291Z,92870.56
2023-04-02T07:11:00.813Z,92864.34
2023-04-02T07:13:28.682Z,92872.75
2023-04-02T07:15:56.697Z,92875.91
2023-04-02T07:18:27.319Z,92878.38
2023-04-02T07:20:55.114Z,92875.47
2023-04-02T07:23:23.252Z,92872.28
2023-04-02T07:25:54.662Z,92889.50
2023-04-02T07:28:22.916Z,92877.66
2023-04-02T07:30:50.822Z,92879.31
2023-04-02T07:33:19.362Z,92896.47
2023-04-02T07:35:46.593Z,92890.59
2023-04-02T07:38:13.615Z,92885.91
2023-04-02T07:40:40.595Z,92889.16
2023-04-02T07:43:09.326Z,92891.75
2023-04-02T07:45:36.689Z,92889.41
2023-04-02T07:48:05.832Z,92886.28
2023-04-02T07:50:33.232Z,92887.69
2023-04-02T07:53:00.355Z,92881.34
2023-04-02T07:55:27.303Z,92884.13
2023-04-02T07:57:55.791Z,92885.94
2023-04-02T08:00:24.943Z,92887.28
2023-04-02T08:02:52.258Z,92890.44
2023-04-02T08:05:19.713Z,92889.44
2023-04-02T08:07:52.990Z,92883.25
2023-04-02T08:10:19.982Z,92893.53
2023-04-02T08:12:47.026Z,92898.28
2023-04-02T08:15:15.723Z,92894.88
2023-04-02T08:17:44.404Z,92898.56
2023-04-02T08:20:15.416Z,92893.38
2023-04-02T08:22:42.470Z,92898.34
2023-04-02T08:25:10.038Z,92904.47
2023-04-02T08:27:37.250Z,92897.78
2023-04-02T08:30:06.446Z,92893.44
2023-04-02T08:32:33.740Z,92899.41
2023-04-02T08:35:02.803Z,92903.84
2023-04-02T08:37:29.825Z,92894.38
2023-04-02T08:39:56.894Z,92905.41
2023-04-02T08:42:30.552Z,92906.66
2023-04-02T08:45:21.212Z,92900.63
2023-04-02T08:47:53.495Z,92876.78
2023-04-02T08:50:29.148Z,92914.38
2023-04-02T08:52:57.215Z,92909.38
2023-04-02T08:55:29.907Z,92895.53
2023-04-02T08:58:04.009Z,92896.53
2023-04-02T09:00:37.449Z,92906.09
2023-04-02T09:03:09.071Z,92906.91
2023-04-02T09:05:39.962Z,92909.34
2023-04-02T09:08:16.831Z,92904.94
2023-04-02T09:10:49.312Z,92910.91
2023-04-02T09:13:19.870Z,92896.69
2023-04-02T09:15:47.400Z,92894.97
2023-04-02T09:18:16.687Z,92902.31
2023-04-02T09:20:45.686Z,92896.41
2023-04-02T09:23:17.637Z,92903.03
2023-04-02T09:25:57.425Z,92903.03
2023-04-02T09:28:30.542Z,92896.16
2023-04-02T09:31:02.162Z,92893.63
2023-04-02T09:33:43.002Z,92890.59
2023-04-02T09:36:26.934Z,92890.13
2023-04-02T09:38:59.242Z,92890.69
2023-04-02T09:41:29.212Z,92888.31
2023-04-02T09:44:21.281Z,92888.00
2023-04-02T09:46:59.862Z,92884.69
2023-04-02T09:49:29.316Z,92886.78
2023-04-02T09:52:19.391Z,92879.34
2023-04-02T09:54:47.080Z,92871.53
2023-04-02T09:57:24.888Z,92874.88
2023-04-02T10:00:25.227Z,92877.47
2023-04-02T10:03:04.272Z,92876.91
2023-04-02T10:05:40.544Z,92876.78
2023-04-02T10:08:19.041Z,92880.38
2023-04-02T10:10:48.719Z,92877.13
2023-04-02T10:13:19.967Z,92871.47
2023-04-02T10:15:49.138Z,92869.50
2023-04-02T10:18:21.401Z,92867.78
2023-04-02T10:20:51.680Z,92861.22
2023-04-02T10:23:20.294Z,92859.03
2023-04-02T10:25:52.024Z,92861.63
2023-04-02T10:28:25.948Z,92851.00
2023-04-02T10:30:57.355Z,92868.78
2023-04-02T10:33:28.817Z,92868.06
2023-04-02T10:36:01.898Z,92865.34
2023-04-02T10:38:38.869Z,92859.78
2023-04-02T10:41:16.326Z,92863.41
2023-04-02T10:44:21.958Z,92859.25
2023-04-02T10:47:06.590Z,92868.75
2023-04-02T10:49:42.032Z,92868.63
2023-04-02T10:52:13.660Z,92858.59
2023-04-02T10:54:47.022Z,92858.41
2023-04-02T10:57:26.691Z,92853.34
2023-04-02T10:59:57.604Z,92854.13
2023-04-02T11:02:31.989Z,92851.88
2023-04-02T11:05:04.006Z,92854.34
2023-04-02T11:07:43.714Z,92843.72
2023-04-02T11:10:15.606Z,92844.34
2023-04-02T11:12:49.939Z,92848.38
2023-04-02T11:15:17.022Z,92850.69
2023-04-02T11:17:44.450Z,92848.72
2023-04-02T11:20:57.420Z,92847.44
2023-04-02T11:23:28.746Z,92841.75
2023-04-02T11:26:33.100Z,92857.22
2023-04-02T11:29:13.604Z,92851.06
2023-04-02T11:31:40.809Z,92843.38
2023-04-02T11:34:12.939Z,92845.72
2023-04-02T11:37:00.528Z,92841.44
2023-04-02T11:39:54.093Z,92835.41
2023-04-02T11:42:30.497Z,92832.69
2023-04-02T11:45:00.416Z,92842.25
2023-04-02T11:47:28.001Z,92834.75
2023-04-02T11:50:03.487Z,92836.28
2023-04-02T11:52:36.876Z,92841.28
2023-04-02T11:55:24.440Z,92831.84
2023-04-02T11:58:01.822Z,92841.03
2023-04-02T12:00:40.132Z,92832.00
2023-04-02T12:03:45.493Z,92832.25
2023-04-02T12:06:20.651Z,92832.56
2023-04-02T12:08:58.054Z,92830.19
2023-04-02T12:11:33.531Z,92828.38
2023-04-02T12:14:02.911Z,92824.88
2023-04-02T12:16:33.709Z,92833.44
2023-04-02T12:19:01.602Z,92827.84
2023-04-02T12:21:30.607Z,92818.81
2023-04-02T12:23:59.136Z,92826.47
2023-04-02T12:26:32.463Z,92831.13
2023-04-02T12:29:19.079Z,92834.25
2023-04-02T12:31:47.978Z,92826.50
2023-04-02T12:34:16.676Z,92823.34
2023-04-02T12:36:55.196Z,92830.00
2023-04-02T12:39:23.227Z,92822.44
2023-04-02T12:41:51.490Z,92825.28
2023-04-02T12:44:24.337Z,92821.50
2023-04-02T12:46:52.385Z,92820.78
2023-04-02T12:49:28.840Z,92820.13
2023-04-02T12:51:56.692Z,92823.34
2023-04-02T12:54:24.099Z,92819.59
2023-04-02T12:56:51.495Z,92813.78
2023-04-02T12:59:29.310Z,92808.63
2023-04-02T13:01:57.495Z,92805.09
2023-04-02T13:04:24.514Z,92805.00
2023-04-02T13:06:54.980Z,92800.91
2023-04-02T13:09:34.782Z,92804.00
2023-04-02T13:12:03.060Z,92800.66
2023-04-02T13:14:31.479Z,92795.50
2023-04-02T13:16:58.545Z,92800.56
2023-04-02T13:19:28.554Z,92796.91
2023-04-02T13:21:57.142Z,92794.66
2023-04-02T13:24:25.683Z,92797.72
2023-04-02T13:26:56.486Z,92810.16
2023-04-02T13:29:26.428Z,92806.19
2023-04-02T13:31:57.352Z,92806.38
2023-04-02T13:34:24.703Z,92799.56
2023-04-02T13:36:51.998Z,92807.00
2023-04-02T13:39:20.607Z,92803.66
2023-04-02T13:41:49.251Z,92801.03
2023-04-02T13:44:22.871Z,92802.50
2023-04-02T13:46:50.550Z,92802.94
2023-04-02T13:49:19.467Z,92803.84
2023-04-02T13:51:48.037Z,92809.75
2023-04-02T13:54:22.421Z,92811.34
2023-04-02T13:56:49.524Z,92806.06
2023-04-02T13:59:16.705Z,92800.84
2023-04-02T14:01:44.977Z,92800.28
2023-04-02T14:04:16.374Z,92800.19
2023-04-02T14:07:08.445Z,92802.50
2023-04-02T14:09:42.417Z,92802.78
2023-04-02T14:12:17.267Z,92793.19
2023-04-02T14:15:12.550Z,92794.50
2023-04-02T14:17:49.851Z,92800.13
2023-04-02T14:20:25.976Z,92794.88
2023-04-02T14:23:07.176Z,92798.59
2023-04-02T14:25:39.137Z,92799.59
2023-04-02T14:28:10.670Z,92797.38
2023-04-02T14:30:45.492Z,92796.88
2023-04-02T14:33:20.976Z,92798.16
2023-04-02T14:35:52.470Z,92797.72
2023-04-02T14:38:24.989Z,92791.66
2023-04-02T14:40:56.159Z,92785.31
2023-04-02T14:43:24.942Z,92786.69
2023-04-02T14:45:58.256Z,92793.63
2023-04-02T14:48:37.785Z,92796.25
2023-04-02T14:51:07.538Z,92794.13
2023-04-02T14:53:47.444Z,92790.75
2023-04-02T14:56:15.834Z,92792.41
2023-04-02T14:58:43.906Z,92798.06
2023-04-02T15:01:13.979Z,92800.06
2023-04-02T15:03:44.697Z,92803.19
2023-04-02T15:06:15.856Z,92808.84
2023-04-02T15:08:52.367Z,92806.13
2023-04-02T15:11:29.635Z,92808.34
2023-04-02T15:14:00.457Z,92811.53
2023-04-02T15:16:27.729Z,92815.00
2023-04-02T15:18:56.794Z,92810.22
2023-04-02T15:21:49.833Z,92811.22
2023-04-02T15:24:31.077Z,92810.75
2023-04-02T15:27:09.324Z,92808.13
2023-04-02T15:29:42.100Z,92805.66
2023-04-02T15:32:23.865Z,92811.50
2023-04-02T15:34:54.710Z,92815.34
2023-04-02T15:37:23.992Z,92815.75
2023-04-02T15:40:19.858Z,92820.25
2023-04-02T15:42:53.366Z,92806.66
2023-04-02T15:45:29.048Z,92817.97
2023-04-02T15:48:18.469Z,92813.44
2023-04-02T15:51:08.557Z,92810.94
2023-04-02T15:53:43.536Z,92816.91
2023-04-02T15:56:36.110Z,92825.59
2023-04-02T15:59:19.930Z,92825.19
2023-04-02T16:01:54.468Z,92828.44
2023-04-02T16:04:33.272Z,92834.56
2023-04-02T16:07:20.482Z,92833.63
2023-04-02T16:09:54.407Z,92831.34
2023-04-02T16:12:26.192Z,92835.22
2023-04-02T16:14:55.956Z,92835.28
2023-04-02T16:17:28.460Z,92833.81
2023-04-02T16:19:58.399Z,92838.13
2023-04-02T16:22:29.085Z,92833.53
2023-04-02T16:25:01.071Z,92837.19
2023-04-02T16:27:32.540Z,92839.41
2023-04-02T16:30:22.565Z,92843.88
2023-04-02T16:33:00.043Z,92843.91
2023-04-02T16:38:09.437Z,92846.13
2023-04-02T16:40:40.688Z,92842.00
2023-04-02T16:43:18.319Z,92839.63
2023-04-02T16:45:50.992Z,92846.00
2023-04-02T16:48:24.280Z,92843.41
2023-04-02T16:50:58.162Z,92849.56
2023-04-02T16:53:31.822Z,92855.84
2023-04-02T16:56:12.034Z,92848.69
2023-04-02T16:58:46.882Z,92855.78
2023-04-02T17:01:15.798Z,92864.09
2023-04-02T17:04:14.228Z,92869.03
2023-04-02T17:06:43.419Z,92869.56
2023-04-02T17:09:17.695Z,92868.34
2023-04-02T17:11:49.176Z,92871.84
2023-04-02T17:14:24.068Z,92871.59
2023-04-02T17:16:53.296Z,92882.84
2023-04-02T17:19:21.609Z,92877.88
2023-04-02T17:21:52.363Z,92879.75
2023-04-02T17:24:24.432Z,92885.56
2023-04-02T17:26:53.915Z,92885.28
2023-04-02T17:29:27.764Z,92893.19
2023-04-02T17:32:00.006Z,92901.84
2023-04-02T17:34:28.363Z,92904.75
2023-04-02T17:37:03.328Z,92914.34
2023-04-02T17:39:35.986Z,92914.22
2023-04-02T17:42:10.472Z,92922.66
2023-04-02T17:44:46.683Z,92918.50
2023-04-02T17:47:20.007Z,92924.72
2023-04-02T17:49:52.380Z,92923.13
2023-04-02T17:52:22.287Z,92925.28
2023-04-02T17:54:58.161Z,92934.59
2023-04-02T17:57:36.029Z,92936.63
2023-04-02T18:00:14.625Z,92932.41
2023-04-02T18:02:59.932Z,92932.50
2023-04-02T18:05:31.446Z,92932.84
2023-04-02T18:08:05.319Z,92944.19
2023-04-02T18:10:36.988Z,92944.53
2023-04-02T18:13:07.828Z,92941.59
2023-04-02T18:15:42.562Z,92945.84
2023-04-02T18:18:19.413Z,92946.38
2023-04-02T18:20:54.044Z,92952.81
2023-04-02T18:23:36.432Z,92958.31
2023-04-02T18:26:08.252Z,92957.06
2023-04-02T18:28:43.490Z,92956.50
2023-04-02T18:31:19.709Z,92964.53
2023-04-02T18:34:05.435Z,92972.88
2023-04-02T18:36:39.358Z,92972.88
2023-04-02T18:39:13.617Z,92983.94
2023-04-02T18:41:46.470Z,92985.72
2023-04-02T18:44:31.565Z,92991.28
2023-04-02T18:47:05.515Z,92995.28
2023-04-02T18:49:36.928Z,92998.66
2023-04-02T18:52:10.041Z,92997.94
2023-04-02T18:54:39.669Z,92994.41
2023-04-02T18:57:11.881Z,93002.31
2023-04-02T18:59:42.921Z,92999.75
2023-04-02T19:02:26.336Z,92999.38
2023-04-02T19:05:00.438Z,92997.38
2023-04-02T19:07:29.938Z,92994.91
2023-04-02T19:10:00.232Z,92997.13
2023-04-02T19:12:32.396Z,92996.41
2023-04-02T19:14:59.730Z,93000.53
2023-04-02T19:17:31.080Z,93004.00
2023-04-02T19:20:07.365Z,92998.88
2023-04-02T19:22:41.794Z,93008.53
2023-04-02T19:25:26.488Z,93008.53
2023-04-02T19:28:02.071Z,93006.75
2023-04-02T19:30:50.658Z,93005.34
2023-04-02T19:33:41.242Z,93005.88
2023-04-02T19:36:26.633Z,92997.63
2023-04-02T19:39:01.155Z,93003.81
2023-04-02T19:41:32.155Z,93001.75
2023-04-02T19:43:59.375Z,93009.50
2023-04-02T19:46:26.923Z,93012.06
2023-04-02T19:49:00.310Z,93011.50
2023-04-02T19:51:27.345Z,93006.06
2023-04-02T19:53:54.576Z,93006.72
2023-04-02T19:56:22.890Z,93009.91
2023-04-02T19:58:50.102Z,93006.34
2023-04-02T20:01:17.433Z,93012.66
2023-04-02T20:03:44.685Z,93015.59
2023-04-02T20:06:14.499Z,93022.09
2023-04-02T20:08:41.728Z,93015.69
2023-04-02T20:11:08.898Z,93022.13
2023-04-02T20:13:36.123Z,93020.72
2023-04-02T20:16:04.750Z,93020.28
2023-04-02T20:18:32.183Z,93016.72
2023-04-02T20:20:59.460Z,93011.41
2023-04-02T20:23:27.830Z,93019.31
2023-04-02T20:25:57.217Z,93021.41
2023-04-02T20:28:25.614Z,93016.03
2023-04-02T20:30:53.596Z,93012.22
2023-04-02T20:33:22.641Z,93014.31
2023-04-02T20:35:50.772Z,93023.47
2023-04-02T20:38:18.603Z,93019.00
2023-04-02T20:40:52.853Z,93026.19
2023-04-02T20:43:20.120Z,93026.19
2023-04-02T20:45:53.993Z,93032.75
2023-04-02T20:48:21.016Z,93028.09
2023-04-02T20:50:49.179Z,93028.91
2023-04-02T20:53:16.534Z,93034.16
2023-04-02T20:55:43.865Z,93032.75
2023-04-02T20:58:12.713Z,93028.59
2023-04-02T21:00:39.715Z,93031.31
2023-04-02T21:03:06.886Z,93030.03
2023-04-02T21:05:34.111Z,93032.44
2023-04-02T21:08:01.148Z,93031.00
2023-04-02T21:10:28.130Z,93036.75
2023-04-02T21:12:55.566Z,93030.69
2023-04-02T21:15:27.216Z,93031.31
2023-04-02T21:17:54.204Z,93042.38
2023-04-02T21:20:21.736Z,93033.56
2023-04-02T21:22:49.011Z,93035.66
2023-04-02T21:25:16.193Z,93040.81
2023-04-02T21:27:43.516Z,93047.69
2023-04-02T21:30:12.078Z,93045.28
2023-04-02T21:32:40.449Z,93045.59
2023-04-02T21:35:09.174Z,93040.31
2023-04-02T21:37:40.155Z,93051.84
2023-04-02T21:40:09.106Z,93051.53
2023-04-02T21:42:37.185Z,93051.03
2023-04-02T21:45:04.857Z,93049.72
2023-04-02T21:47:31.947Z,93054.66
2023-04-02T21:50:00.362Z,93055.47
2023-04-02T21:52:27.321Z,93061.56
2023-04-02T21:54:54.241Z,93054.97
2023-04-02T21:57:21.171Z,93056.22
2023-04-02T21:59:48.317Z,93053.91
2023-04-02T22:02:16.645Z,93059.53
2023-04-02T22:04:43.572Z,93054.44
2023-04-02T22:07:12.022Z,93051.38
2023-04-02T22:09:39.043Z,93055.19
2023-04-02T22:12:08.105Z,93050.13
2023-04-02T22:14:35.310Z,93050.13
2023-04-02T22:17:03.493Z,93047.72
2023-04-02T22:19:30.677Z,93051.69
2023-04-02T22:21:57.666Z,93053.63
2023-04-02T22:24:26.133Z,93058.09
2023-04-02T22:26:53.208Z,93053.31
2023-04-02T22:29:20.473Z,93055.19
2023-04-02T22:31:47.487Z,93061.13
2023-04-02T22:34:14.608Z,93058.06
2023-04-02T22:36:41.628Z,93062.84
2023-04-02T22:39:12.034Z,93056.88
2023-04-02T22:41:40.476Z,93060.84
2023-04-02T22:44:07.439Z,93060.66
2023-04-02T22:46:34.795Z,93056.50
2023-04-02T22:49:02.074Z,93053.16
2023-04-02T22:51:29.646Z,93051.84
2023-04-02T22:53:57.319Z,93054.59
2023-04-02T22:56:26.732Z,93058.78
2023-04-02T22:58:55.090Z,93055.75
2023-04-02T23:01:25.755Z,93064.81
2023-04-02T23:03:53.217Z,93057.81
2023-04-02T23:06:20.421Z,93051.34
2023-04-02T23:08:47.669Z,93049.41
2023-04-02T23:11:16.567Z,93062.44
2023-04-02T23:13:44.160Z,93054.59
2023-04-02T23:16:13.572Z,93048.00
2023-04-02T23:18:42.168Z,93051.94
2023-04-02T23:21:09.209Z,93055.63
2023-04-02T23:23:36.890Z,93054.50
2023-04-02T23:26:05.714Z,93050.91
2023-04-02T23:28:32.951Z,93054.63
2023-04-02T23:31:01.559Z,93057.63
2023-04-02T23:33:29.853Z,93050.78
2023-04-02T23:35:57.383Z,93052.84
2023-04-02T23:38:25.054Z,93045.09
2023-04-02T23:40:52.406Z,93047.41
2023-04-02T23:43:19.504Z,93039.13
2023-04-02T23:45:48.166Z,93044.16
2023-04-02T23:48:15.012Z,93049.03
2023-04-02T23:50:44.006Z,93045.16
2023-04-02T23:53:11.944Z,93047.59
2023-04-02T23:55:39.043Z,93048.97
2023-04-02T23:58:06.351Z,93039.56
